Detalii statie AGRALMIXT [00001CED]

Condiții climatice - Boli

Date Temperatura solului [C]Precipitatii [mm]HC Air temperature [C]HC Relative humidity [%]
medieminmaxsumamedieminmaxmedie
2019-10-19 22:00:00 0 8.76 8.11 9.14 100
2019-10-19 23:00:00 0 8.41 7.9 8.83 100
2019-10-20 00:00:00 0 7 6.7 7.66 100
2019-10-20 01:00:00 0 6.56 6.29 6.86 100
2019-10-20 02:00:00 0 6.29 5.87 6.71 100
2019-10-20 03:00:00 0.2 5.79 5.56 6.06 100
2019-10-20 04:00:00 0 5.17 4.66 5.8 100
2019-10-20 05:00:00 0 4.95 4.71 5.18 100
2019-10-20 06:00:00 0 4.58 4.39 4.75 100
2019-10-20 07:00:00 0 4.91 4.43 5.78 100
2019-10-20 08:00:00 0 7.78 6.09 9.11 100
2019-10-20 09:00:00 0 9.98 9.33 10.52 100
2019-10-20 10:00:00 0 10.86 10.55 11.29 100
2019-10-20 11:00:00 0 12.15 11.49 12.91 100
2019-10-20 12:00:00 0 14.09 13.11 15.08 100
2019-10-20 13:00:00 0 17.3 15.16 18.98 95.4
2019-10-20 14:00:00 0 19.65 18.9 20.29 81.68
2019-10-20 15:00:00 0 20.49 20.29 20.8 74.87
2019-10-20 16:00:00 0 19.51 18.67 20.38 71.91
2019-10-20 17:00:00 0 16.97 15.32 18.41 81.07
2019-10-20 18:00:00 0 14.32 13.3 15.22 94.47
2019-10-20 19:00:00 0 12.41 11.92 13.18 99.91
2019-10-20 20:00:00 0 11.64 11.42 11.9 100
2019-10-20 21:00:00 0 11.17 10.25 11.56 100
2019-10-20 22:00:00 0 9.96 9.57 10.5 100
2019-10-20 23:00:00 0 9.78 8.98 10.61 100
2019-10-21 00:00:00 0 9.39 8.96 10.02 100
2019-10-21 01:00:00 0.2 8.65 8.17 8.97 100
2019-10-21 02:00:00 0 7.67 7.49 8.1 100
2019-10-21 03:00:00 0 8.78 8.34 9.12 100
2019-10-21 04:00:00 0 9.56 9.19 9.87 100
2019-10-21 05:00:00 0 10.45 9.99 10.64 100
2019-10-21 06:00:00 0 10.63 10.61 10.66 100
2019-10-21 07:00:00 0 10.6 10.49 10.8 100
2019-10-21 08:00:00 0 11.1 10.89 11.47 100
2019-10-21 09:00:00 0 12.09 11.69 12.46 100
2019-10-21 10:00:00 0 12.75 12.44 13.24 100
2019-10-21 11:00:00 0 13.57 13.15 14.48 100
2019-10-21 12:00:00 0 15.47 14.25 17.27 100
2019-10-21 13:00:00 0.2 19.63 17.4 20.88 86.66
2019-10-21 14:00:00 0 20.8 20.3 21.39 75.81
2019-10-21 15:00:00 0 21.47 21.27 21.71 66.04
2019-10-21 16:00:00 0 20.51 19.37 21.53 66.96
2019-10-21 17:00:00 0 17.67 15.94 19.24 80.23
2019-10-21 18:00:00 0 14.65 13.84 15.58 95.72
2019-10-21 19:00:00 0 13.46 13.08 14.05 100
2019-10-21 20:00:00 0 11.86 11.39 12.76 100
2019-10-21 21:00:00 0 11.53 11.18 11.96 100